Northeast Madison, Pennsylvania
Current Conditions -  °F | °C
As of 1:56 PM on Monday 20 Oct 2014 (Local Time) from KCXY Reporting Station
Clear Clear  
Wind Chill: 61°   Ceiling: Unl
Heat Index: 61°   Visibility: 10mi
Dew Point: 38°   Wind: 10mph
Humidity: 42%   Direction: 190°S
Pressure: 29.98"   Gusts: NA
Location:  40.3674°N, 77.4381°W
Report Text: KCXY 201756Z 19009KT 10SM CLR 16/03 A2998 RMK AO2 SLP154 T01610033 10167 20022 58037
Loading
Personal Weather Stations






























Interactive Weather Map
Tropical Storm Tracking
New forecast layout! Learn more

10-Day Weather Forecast

Advertisements
Track Severe Weather on mobile